Time;durP1;ratioP1;P1;durP2;ratioP2;P2;SDS_P1;SDS_P2;PMS_P1;PMS_P2;Temp;Humidity;BMP_temperature;BMP_pressure;BME280_temperature;BME280_humidity;BME280_pressure;Samples;Min_cycle;Max_cycle;Signal;HPM_P1;HPM_P2
2023/01/14 00:01:17;;;;;;;0.85;0.80;;;;;;;;;;5011231;28;20427;-70
2023/01/14 00:03:43;;;;;;;0.40;0.40;;;;;;;;;;5019809;28;20049;-72
2023/01/14 00:06:12;;;;;;;1.05;1.05;;;;;;;;;;5014288;28;20021;-72
2023/01/14 00:08:38;;;;;;;1.30;1.20;;;;;;;;;;5029122;28;20033;-72
2023/01/14 00:11:04;;;;;;;1.88;1.77;;;;;;;;;;5028788;28;20147;-72
2023/01/14 00:13:31;;;;;;;0.38;0.38;;;;;;;;;;5029424;28;20061;-71
2023/01/14 00:15:57;;;;;;;0.30;0.30;;;;;;;;;;5028956;28;20022;-71
2023/01/14 00:18:23;;;;;;;1.50;1.50;;;;;;;;;;5028982;28;20087;-72
2023/01/14 00:21:00;;;;;;;0.93;0.93;;;;;;;;;;5028193;28;20072;-72
2023/01/14 00:23:26;;;;;;;3.20;2.83;;;;;;;;;;5027287;28;20036;-72
2023/01/14 00:25:52;;;;;;;0.15;0.15;;;;;;;;;;5009604;28;20017;-73
2023/01/14 00:28:18;;;;;;;0.80;0.80;;;;;;;;;;5025579;28;20087;-72
2023/01/14 00:30:44;;;;;;;0.55;0.55;;;;;;;;;;5026227;28;20030;-73
2023/01/14 00:33:09;;;;;;;0.30;0.30;;;;;;;;;;5026259;28;20397;-72
2023/01/14 00:35:37;;;;;;;1.85;1.75;;;;;;;;;;5026119;28;20021;-71
2023/01/14 00:38:03;;;;;;;0.75;0.75;;;;;;;;;;5026480;28;20094;-71
2023/01/14 00:40:28;;;;;;;0.10;0.10;;;;;;;;;;5026715;28;20013;-69
2023/01/14 00:42:54;;;;;;;0.30;0.30;;;;;;;;;;4989486;28;20029;-72
2023/01/14 00:45:19;;;;;;;1.95;1.85;;;;;;;;;;4990242;28;20025;-71
2023/01/14 00:47:45;;;;;;;1.73;1.67;;;;;;;;;;5007378;28;20454;-72
2023/01/14 00:50:11;;;;;;;0.45;0.45;;;;;;;;;;5007217;28;20030;-72
2023/01/14 00:52:37;;;;;;;0.20;0.20;;;;;;;;;;4989887;28;20133;-71
2023/01/14 00:55:03;;;;;;;0.13;0.13;;;;;;;;;;5013346;28;20029;-73
2023/01/14 00:57:30;;;;;;;0.10;0.10;;;;;;;;;;5028898;28;20116;-71
2023/01/14 00:59:56;;;;;;;3.50;2.75;;;;;;;;;;5010972;28;20410;-73
2023/01/14 01:02:22;;;;;;;1.30;1.20;;;;;;;;;;5030531;28;20029;-72
2023/01/14 01:04:47;;;;;;;0.30;0.30;;;;;;;;;;5025327;28;20065;-72
2023/01/14 01:07:13;;;;;;;2.85;2.63;;;;;;;;;;5031886;28;20040;-71
2023/01/14 01:09:39;;;;;;;4.65;4.22;;;;;;;;;;5032423;28;20067;-72
2023/01/14 01:12:05;;;;;;;1.48;1.45;;;;;;;;;;5031937;28;20025;-74
2023/01/14 01:14:31;;;;;;;0.52;0.52;;;;;;;;;;5032651;28;20022;-72
2023/01/14 01:16:57;;;;;;;2.97;2.83;;;;;;;;;;5032353;28;20108;-71
2023/01/14 01:19:22;;;;;;;0.50;0.50;;;;;;;;;;5031046;28;20117;-71
2023/01/14 01:21:48;;;;;;;1.50;1.40;;;;;;;;;;5014349;28;20025;-71
2023/01/14 01:24:14;;;;;;;0.65;0.65;;;;;;;;;;5032595;28;20092;-70
2023/01/14 01:26:39;;;;;;;0.68;0.68;;;;;;;;;;5030532;28;20029;-71
2023/01/14 01:29:05;;;;;;;0.95;0.95;;;;;;;;;;5030720;28;20071;-71
2023/01/14 01:31:30;;;;;;;0.63;0.63;;;;;;;;;;4998015;28;20053;-71
2023/01/14 01:33:56;;;;;;;0.20;0.20;;;;;;;;;;5031603;28;20487;-72
2023/01/14 01:36:23;;;;;;;0.10;0.10;;;;;;;;;;5032285;28;20036;-71
2023/01/14 01:38:49;;;;;;;0.40;0.40;;;;;;;;;;5032140;28;20025;-71
2023/01/14 01:41:15;;;;;;;1.45;1.38;;;;;;;;;;5013913;28;20044;-73
2023/01/14 01:44:00;;;;;;;1.25;1.25;;;;;;;;;;5013951;28;20053;-72
2023/01/14 01:46:25;;;;;;;3.83;2.63;;;;;;;;;;5014137;28;20029;-72
2023/01/14 01:48:54;;;;;;;1.45;1.42;;;;;;;;;;5014044;28;20083;-71
2023/01/14 01:51:22;;;;;;;0.63;0.63;;;;;;;;;;5032118;28;20044;-69
2023/01/14 01:53:50;;;;;;;2.80;2.58;;;;;;;;;;5031018;28;20053;-69
2023/01/14 01:56:17;;;;;;;1.17;1.17;;;;;;;;;;5031473;28;20055;-70
2023/01/14 01:58:43;;;;;;;2.47;2.38;;;;;;;;;;5014339;28;20028;-70
2023/01/14 02:01:09;;;;;;;0.38;0.38;;;;;;;;;;5017529;28;20021;-69
2023/01/14 02:03:38;;;;;;;3.38;3.08;;;;;;;;;;5017505;28;20027;-70
2023/01/14 02:06:04;;;;;;;;;;;;;;;;;;5035425;28;20385;-70
2023/01/14 02:08:29;;;;;;;0.47;0.47;;;;;;;;;;5034916;28;19909;-70
2023/01/14 02:11:04;;;;;;;2.97;2.72;;;;;;;;;;5017555;28;20322;-74
2023/01/14 02:13:41;;;;;;;0.82;0.80;;;;;;;;;;5016531;28;20030;-71
2023/01/14 02:16:14;;;;;;;1.38;1.33;;;;;;;;;;5017231;28;20021;-71
2023/01/14 02:18:42;;;;;;;0.38;0.38;;;;;;;;;;5017469;28;20037;-73
2023/01/14 02:21:13;;;;;;;0.40;0.40;;;;;;;;;;5017040;28;20029;-72
2023/01/14 02:23:47;;;;;;;0.55;0.55;;;;;;;;;;5033827;28;20030;-71
2023/01/14 02:26:19;;;;;;;1.05;0.95;;;;;;;;;;5017311;28;20029;-71
2023/01/14 02:28:54;;;;;;;1.45;1.40;;;;;;;;;;5034690;28;20111;-71
2023/01/14 02:31:21;;;;;;;3.00;2.72;;;;;;;;;;5016921;28;20029;-71
2023/01/14 02:34:09;;;;;;;0.80;0.80;;;;;;;;;;5016785;28;20123;-71
2023/01/14 02:36:41;;;;;;;1.67;1.58;;;;;;;;;;5016975;28;20095;-71
2023/01/14 02:39:07;;;;;;;0.30;0.30;;;;;;;;;;5016819;28;20030;-71
2023/01/14 02:44:22;;;;;;;0.10;0.10;;;;;;;;;;5016970;28;20026;-71
2023/01/14 02:47:11;;;;;;;0.30;0.30;;;;;;;;;;5033174;28;20028;-71
2023/01/14 02:49:39;;;;;;;1.88;1.77;;;;;;;;;;5009171;28;20052;-71
2023/01/14 02:52:06;;;;;;;0.55;0.55;;;;;;;;;;5033000;28;20049;-72
2023/01/14 02:54:32;;;;;;;0.70;0.70;;;;;;;;;;5032809;28;20029;-71
2023/01/14 02:57:02;;;;;;;1.38;1.10;;;;;;;;;;5034368;28;20080;-71
2023/01/14 02:59:31;;;;;;;1.25;1.17;;;;;;;;;;5000283;28;20527;-71
2023/01/14 03:02:13;;;;;;;0.20;0.20;;;;;;;;;;5016912;28;20045;-71
2023/01/14 03:04:57;;;;;;;0.20;0.20;;;;;;;;;;5014110;28;20045;-71
2023/01/14 03:07:27;;;;;;;1.98;1.70;;;;;;;;;;4996703;28;20076;-71
2023/01/14 03:09:53;;;;;;;;;;;;;;;;;;5013562;28;20041;-70
2023/01/14 03:12:28;;;;;;;0.25;0.25;;;;;;;;;;4996969;28;20395;-70
2023/01/14 03:14:59;;;;;;;2.17;2.08;;;;;;;;;;4996589;28;20024;-70
2023/01/14 03:17:24;;;;;;;0.60;0.55;;;;;;;;;;5012760;28;20422;-70
2023/01/14 03:19:57;;;;;;;0.75;0.75;;;;;;;;;;4996642;28;20056;-70
2023/01/14 03:22:23;;;;;;;0.63;0.63;;;;;;;;;;4996616;28;20026;-70
2023/01/14 03:24:49;;;;;;;0.17;0.17;;;;;;;;;;5012696;28;20021;-70
2023/01/14 03:27:23;;;;;;;0.20;0.20;;;;;;;;;;4996513;28;20029;-70
2023/01/14 03:29:51;;;;;;;0.68;0.68;;;;;;;;;;5012655;28;20060;-70
2023/01/14 03:32:28;;;;;;;1.25;1.23;;;;;;;;;;4996609;28;20030;-71
2023/01/14 03:34:59;;;;;;;0.20;0.20;;;;;;;;;;5014235;28;20103;-72
2023/01/14 03:37:28;;;;;;;0.10;0.10;;;;;;;;;;5012694;28;20091;-71
2023/01/14 03:39:54;;;;;;;0.20;0.20;;;;;;;;;;5013840;28;20420;-70
2023/01/14 03:42:21;;;;;;;0.47;0.47;;;;;;;;;;5015856;28;20037;-72
2023/01/14 03:44:57;;;;;;;0.10;0.10;;;;;;;;;;5016032;28;20009;-71
2023/01/14 03:47:23;;;;;;;0.20;0.20;;;;;;;;;;5033539;28;20083;-71
2023/01/14 03:49:49;;;;;;;0.10;0.10;;;;;;;;;;5033509;28;20029;-71
2023/01/14 03:52:30;;;;;;;0.10;0.10;;;;;;;;;;5015767;28;20025;-71
2023/01/14 03:55:09;;;;;;;0.10;0.10;;;;;;;;;;5031993;28;20059;-72
2023/01/14 03:57:51;;;;;;;0.10;0.10;;;;;;;;;;5033347;28;20113;-72
2023/01/14 04:00:20;;;;;;;0.55;0.55;;;;;;;;;;5013586;28;20021;-70
2023/01/14 04:02:46;;;;;;;0.25;0.25;;;;;;;;;;5015912;28;20026;-71
2023/01/14 04:05:12;;;;;;;0.52;0.52;;;;;;;;;;5011843;28;20048;-72
2023/01/14 04:07:37;;;;;;;0.22;0.22;;;;;;;;;;5028430;28;20473;-71
2023/01/14 04:10:03;;;;;;;2.17;2.08;;;;;;;;;;5029064;28;20029;-71
2023/01/14 04:12:28;;;;;;;0.32;0.32;;;;;;;;;;5011701;28;20022;-70
2023/01/14 04:17:38;;;;;;;0.10;0.10;;;;;;;;;;5029612;28;20036;-70
2023/01/14 04:20:04;;;;;;;0.90;0.90;;;;;;;;;;5028720;28;20361;-70
2023/01/14 04:22:29;;;;;;;0.30;0.30;;;;;;;;;;5029211;28;20029;-70
2023/01/14 04:24:55;;;;;;;0.10;0.10;;;;;;;;;;5029408;28;20461;-71
2023/01/14 04:27:20;;;;;;;0.38;0.38;;;;;;;;;;5028966;28;20018;-70
2023/01/14 04:29:46;;;;;;;0.20;0.20;;;;;;;;;;5028901;28;20104;-70
2023/01/14 04:32:11;;;;;;;0.30;0.30;;;;;;;;;;5042487;28;20056;-73
2023/01/14 04:34:36;;;;;;;0.20;0.20;;;;;;;;;;5049028;28;20033;-71
2023/01/14 04:37:02;;;;;;;0.20;0.20;;;;;;;;;;5029941;28;20029;-70
2023/01/14 04:39:27;;;;;;;0.30;0.30;;;;;;;;;;5033096;28;20030;-73
2023/01/14 04:44:37;;;;;;;0.10;0.10;;;;;;;;;;5032966;28;20034;-71
2023/01/14 04:47:02;;;;;;;0.65;0.65;;;;;;;;;;5033301;28;20032;-72
2023/01/14 04:49:28;;;;;;;0.10;0.10;;;;;;;;;;5032524;28;20088;-72
2023/01/14 04:51:53;;;;;;;0.20;0.20;;;;;;;;;;5033074;28;20025;-71
2023/01/14 04:54:19;;;;;;;0.10;0.10;;;;;;;;;;5033141;28;20421;-71
2023/01/14 04:56:44;;;;;;;0.10;0.10;;;;;;;;;;5032869;28;20026;-71
2023/01/14 04:59:10;;;;;;;0.10;0.10;;;;;;;;;;5032966;28;20101;-71
2023/01/14 05:01:35;;;;;;;0.10;0.10;;;;;;;;;;5031949;28;20412;-70
2023/01/14 05:04:01;;;;;;;0.10;0.10;;;;;;;;;;5031817;28;20029;-70
2023/01/14 05:06:27;;;;;;;0.10;0.10;;;;;;;;;;5032649;28;20080;-72
2023/01/14 05:08:53;;;;;;;1.85;1.75;;;;;;;;;;5032316;28;20033;-72
2023/01/14 05:11:18;;;;;;;0.10;0.10;;;;;;;;;;5014977;28;20022;-72
2023/01/14 05:13:44;;;;;;;0.10;0.10;;;;;;;;;;5014226;28;20033;-70
2023/01/14 05:16:09;;;;;;;0.25;0.25;;;;;;;;;;5014688;28;20075;-70
2023/01/14 05:18:34;;;;;;;0.10;0.10;;;;;;;;;;5014896;28;20064;-70
2023/01/14 05:21:00;;;;;;;0.32;0.32;;;;;;;;;;5031815;28;20033;-70
2023/01/14 05:23:25;;;;;;;0.10;0.10;;;;;;;;;;5032687;28;20029;-70
2023/01/14 05:25:51;;;;;;;0.10;0.10;;;;;;;;;;5014429;28;20022;-70
2023/01/14 05:28:17;;;;;;;0.13;0.13;;;;;;;;;;5032394;28;20022;-70
2023/01/14 05:30:42;;;;;;;0.52;0.52;;;;;;;;;;5014611;28;20029;-71
2023/01/14 05:33:08;;;;;;;5.32;5.07;;;;;;;;;;5031853;28;20036;-71
2023/01/14 05:35:33;;;;;;;0.10;0.10;;;;;;;;;;5032470;28;20349;-71
2023/01/14 05:37:59;;;;;;;0.10;0.10;;;;;;;;;;5031603;28;20549;-72
2023/01/14 05:40:24;;;;;;;0.10;0.10;;;;;;;;;;5031152;28;20786;-70
2023/01/14 05:45:49;;;;;;;0.63;0.63;;;;;;;;;;5031702;28;20033;-72
2023/01/14 05:48:22;;;;;;;4.57;4.15;;;;;;;;;;5030536;28;20045;-73
2023/01/14 05:50:57;;;;;;;0.57;0.57;;;;;;;;;;5014050;28;20058;-71
2023/01/14 05:53:23;;;;;;;0.10;0.10;;;;;;;;;;5031671;28;20491;-71
2023/01/14 05:55:49;;;;;;;0.10;0.10;;;;;;;;;;5031485;28;20079;-70
2023/01/14 05:58:15;;;;;;;0.10;0.10;;;;;;;;;;5030387;28;20041;-72
2023/01/14 06:06:23;;;;;;;0.52;0.52;;;;;;;;;;5030904;28;20389;-70
2023/01/14 06:08:50;;;;;;;3.53;1.08;;;;;;;;;;5030345;28;20476;-72
2023/01/14 06:11:15;;;;;;;1.10;0.68;;;;;;;;;;5030743;28;20021;-71
2023/01/14 06:13:41;;;;;;;0.17;0.17;;;;;;;;;;5028883;28;20032;-72
2023/01/14 06:16:07;;;;;;;0.10;0.10;;;;;;;;;;5013070;28;20124;-70
2023/01/14 06:18:38;;;;;;;0.40;0.40;;;;;;;;;;5030790;28;20148;-71
2023/01/14 06:21:05;;;;;;;0.10;0.10;;;;;;;;;;5030461;28;20057;-70
2023/01/14 06:23:31;;;;;;;0.10;0.10;;;;;;;;;;5012629;28;20096;-71
2023/01/14 06:25:56;;;;;;;0.10;0.10;;;;;;;;;;5028917;28;20508;-71
2023/01/14 06:28:22;;;;;;;0.20;0.20;;;;;;;;;;5028998;28;20060;-71
2023/01/14 06:30:48;;;;;;;0.10;0.10;;;;;;;;;;5028349;28;20079;-71
2023/01/14 06:33:14;;;;;;;0.13;0.13;;;;;;;;;;5029267;28;20033;-71
2023/01/14 06:35:41;;;;;;;0.10;0.10;;;;;;;;;;5011403;28;20121;-72
2023/01/14 06:38:06;;;;;;;0.10;0.10;;;;;;;;;;5028565;28;20029;-71
2023/01/14 06:40:32;;;;;;;0.10;0.10;;;;;;;;;;4995914;28;20138;-72
2023/01/14 06:42:57;;;;;;;0.20;0.20;;;;;;;;;;5012850;28;20017;-73
2023/01/14 06:45:24;;;;;;;0.10;0.10;;;;;;;;;;5029293;28;20225;-72
2023/01/14 06:47:50;;;;;;;0.47;0.47;;;;;;;;;;5029846;28;20488;-73
2023/01/14 06:50:18;;;;;;;0.10;0.10;;;;;;;;;;5030787;28;20044;-73
2023/01/14 06:52:44;;;;;;;0.10;0.10;;;;;;;;;;5028697;28;20484;-72
2023/01/14 06:55:09;;;;;;;0.10;0.10;;;;;;;;;;5030331;28;20060;-72
2023/01/14 06:57:34;;;;;;;0.10;0.10;;;;;;;;;;5030357;28;20163;-73
2023/01/14 07:00:00;;;;;;;0.10;0.10;;;;;;;;;;5028527;28;20034;-72
2023/01/14 07:02:25;;;;;;;0.10;0.10;;;;;;;;;;5011734;28;20025;-72
2023/01/14 07:04:50;;;;;;;0.10;0.10;;;;;;;;;;5029828;28;20045;-72
2023/01/14 07:07:16;;;;;;;0.10;0.10;;;;;;;;;;5029292;28;20109;-72
2023/01/14 07:09:42;;;;;;;0.10;0.10;;;;;;;;;;5028543;28;20041;-72
2023/01/14 07:12:07;;;;;;;0.10;0.10;;;;;;;;;;5029367;28;20128;-72
2023/01/14 07:14:33;;;;;;;0.10;0.10;;;;;;;;;;5030024;28;20108;-72
2023/01/14 07:17:00;;;;;;;0.10;0.10;;;;;;;;;;5029909;28;20358;-74
2023/01/14 07:19:25;;;;;;;0.30;0.30;;;;;;;;;;5029941;28;20120;-72
2023/01/14 07:21:51;;;;;;;0.20;0.20;;;;;;;;;;5029362;28;20092;-72
2023/01/14 07:24:16;;;;;;;0.52;0.52;;;;;;;;;;5030096;28;20369;-72
2023/01/14 07:26:41;;;;;;;0.20;0.20;;;;;;;;;;5029838;28;20352;-72
2023/01/14 07:29:07;;;;;;;0.10;0.10;;;;;;;;;;5011549;28;20095;-73
2023/01/14 07:31:32;;;;;;;0.10;0.10;;;;;;;;;;5012317;28;20022;-73
2023/01/14 07:33:57;;;;;;;0.10;0.10;;;;;;;;;;5027976;28;20103;-72
2023/01/14 07:36:23;;;;;;;0.10;0.10;;;;;;;;;;5029828;28;20034;-72
2023/01/14 07:38:48;;;;;;;0.10;0.10;;;;;;;;;;5029487;28;20037;-73
2023/01/14 07:41:18;;;;;;;0.10;0.10;;;;;;;;;;5012056;28;20022;-72
2023/01/14 07:43:44;;;;;;;0.10;0.10;;;;;;;;;;5029562;28;20957;-72
2023/01/14 07:46:10;;;;;;;0.10;0.10;;;;;;;;;;5029178;28;20033;-72
2023/01/14 07:48:35;;;;;;;0.52;0.52;;;;;;;;;;5029586;28;20079;-72
2023/01/14 07:51:04;;;;;;;0.20;0.20;;;;;;;;;;5011264;28;20915;-73
2023/01/14 07:53:30;;;;;;;0.20;0.20;;;;;;;;;;5012110;28;20370;-73
2023/01/14 07:55:56;;;;;;;0.10;0.10;;;;;;;;;;5011424;28;20037;-72
2023/01/14 07:58:23;;;;;;;0.20;0.20;;;;;;;;;;5028272;28;20028;-71
2023/01/14 08:00:48;;;;;;;0.10;0.10;;;;;;;;;;5029058;28;20025;-71
2023/01/14 08:03:14;;;;;;;0.13;0.13;;;;;;;;;;5029393;28;20461;-71
2023/01/14 08:05:39;;;;;;;0.10;0.10;;;;;;;;;;5029808;28;20045;-72
2023/01/14 08:08:05;;;;;;;0.10;0.10;;;;;;;;;;5029078;28;20445;-72
2023/01/14 08:10:30;;;;;;;0.10;0.10;;;;;;;;;;5011416;28;20020;-72
2023/01/14 08:12:56;;;;;;;0.10;0.10;;;;;;;;;;5032151;28;20021;-72
2023/01/14 08:15:21;;;;;;;0.20;0.20;;;;;;;;;;5033791;28;20082;-72
2023/01/14 08:17:47;;;;;;;0.10;0.10;;;;;;;;;;5033765;28;20032;-72
2023/01/14 08:20:13;;;;;;;0.10;0.10;;;;;;;;;;5015272;28;20123;-72
2023/01/14 08:22:38;;;;;;;0.10;0.10;;;;;;;;;;5015464;28;20485;-71
2023/01/14 08:25:04;;;;;;;0.10;0.10;;;;;;;;;;5032594;28;20100;-72
2023/01/14 08:27:30;;;;;;;0.10;0.10;;;;;;;;;;5015237;28;20027;-72
2023/01/14 08:29:55;;;;;;;0.15;0.15;;;;;;;;;;5032854;28;20020;-72
2023/01/14 08:32:21;;;;;;;0.10;0.10;;;;;;;;;;5031598;28;20053;-72
2023/01/14 08:34:46;;;;;;;0.10;0.10;;;;;;;;;;5015331;28;20036;-71
2023/01/14 08:37:12;;;;;;;2.53;1.23;;;;;;;;;;5032880;28;20024;-71
2023/01/14 08:39:37;;;;;;;0.30;0.30;;;;;;;;;;5031974;28;20707;-71
2023/01/14 08:42:03;;;;;;;0.63;0.50;;;;;;;;;;5031963;28;20041;-69
2023/01/14 08:44:28;;;;;;;0.10;0.10;;;;;;;;;;5031913;28;20457;-70
2023/01/14 08:46:54;;;;;;;0.10;0.10;;;;;;;;;;5032733;28;20029;-70
2023/01/14 08:49:19;;;;;;;0.10;0.10;;;;;;;;;;5032972;28;20033;-70
2023/01/14 08:51:44;;;;;;;0.17;0.17;;;;;;;;;;5032102;28;20028;-71
2023/01/14 08:54:10;;;;;;;0.10;0.10;;;;;;;;;;5031922;28;20075;-70
2023/01/14 08:56:35;;;;;;;0.10;0.10;;;;;;;;;;5015255;28;20365;-71
2023/01/14 08:59:01;;;;;;;0.10;0.10;;;;;;;;;;5042466;28;20092;-71
2023/01/14 09:01:29;;;;;;;0.10;0.10;;;;;;;;;;5016328;28;20021;-70
2023/01/14 09:03:57;;;;;;;0.28;0.28;;;;;;;;;;5013946;28;20109;-71
2023/01/14 09:06:23;;;;;;;0.52;0.30;;;;;;;;;;5031434;28;20473;-70
2023/01/14 09:17:07;;;;;;;0.22;0.22;;;;;;;;;;5030897;28;20053;-71
2023/01/14 09:19:37;;;;;;;0.28;0.28;;;;;;;;;;5022082;28;20032;-70
2023/01/14 09:22:06;;;;;;;0.28;0.28;;;;;;;;;;5038002;28;20333;-71
2023/01/14 09:24:32;;;;;;;0.10;0.10;;;;;;;;;;5042283;28;20020;-71
2023/01/14 09:27:00;;;;;;;0.28;0.28;;;;;;;;;;5031143;28;20025;-70
2023/01/14 09:29:26;;;;;;;0.10;0.10;;;;;;;;;;5030867;28;20036;-71
2023/01/14 09:31:51;;;;;;;4.47;0.70;;;;;;;;;;5030632;28;20096;-71
2023/01/14 09:34:18;;;;;;;1.08;0.85;;;;;;;;;;5031567;28;20056;-72
2023/01/14 09:36:45;;;;;;;0.10;0.10;;;;;;;;;;5031628;28;20165;-72
2023/01/14 09:39:11;;;;;;;0.10;0.10;;;;;;;;;;5033052;28;20112;-71
2023/01/14 09:41:39;;;;;;;0.40;0.40;;;;;;;;;;5033652;28;20059;-71
2023/01/14 09:44:06;;;;;;;2.65;2.45;;;;;;;;;;5045426;28;20031;-71
2023/01/14 09:46:32;;;;;;;0.30;0.30;;;;;;;;;;5050677;28;20111;-70
2023/01/14 09:49:00;;;;;;;0.10;0.10;;;;;;;;;;5051887;28;20037;-71
2023/01/14 09:51:32;;;;;;;0.50;0.50;;;;;;;;;;5051587;28;20402;-71
2023/01/14 09:54:02;;;;;;;0.20;0.20;;;;;;;;;;5050531;28;20526;-71
2023/01/14 09:56:31;;;;;;;0.10;0.10;;;;;;;;;;5049644;28;20067;-71
2023/01/14 09:58:56;;;;;;;0.90;0.90;;;;;;;;;;5049214;28;20546;-72
2023/01/14 10:01:34;;;;;;;0.10;0.10;;;;;;;;;;5049403;28;20025;-71
2023/01/14 10:04:05;;;;;;;0.20;0.20;;;;;;;;;;5048904;28;20064;-71
2023/01/14 10:06:32;;;;;;;0.10;0.10;;;;;;;;;;5049451;28;20029;-71
2023/01/14 10:09:06;;;;;;;0.40;0.40;;;;;;;;;;5049581;28;20056;-72
2023/01/14 10:11:34;;;;;;;0.30;0.30;;;;;;;;;;5051292;28;20432;-71
2023/01/14 10:14:03;;;;;;;0.10;0.10;;;;;;;;;;5051370;28;20025;-70
2023/01/14 10:16:31;;;;;;;0.50;0.50;;;;;;;;;;5051087;28;20448;-70
2023/01/14 10:18:56;;;;;;;0.52;0.52;;;;;;;;;;5051342;28;20036;-71
2023/01/14 10:21:40;;;;;;;0.10;0.10;;;;;;;;;;5051338;28;20475;-70
2023/01/14 10:24:10;;;;;;;0.10;0.10;;;;;;;;;;5051490;28;20025;-70
2023/01/14 10:26:36;;;;;;;0.10;0.10;;;;;;;;;;5033536;28;20025;-70
2023/01/14 10:29:08;;;;;;;1.40;1.30;;;;;;;;;;5051101;28;20133;-70
2023/01/14 10:31:35;;;;;;;0.30;0.30;;;;;;;;;;5051156;28;20013;-71
2023/01/14 10:34:01;;;;;;;0.20;0.20;;;;;;;;;;5050271;28;20475;-71
2023/01/14 10:36:29;;;;;;;0.10;0.10;;;;;;;;;;5050575;28;20025;-72
2023/01/14 10:38:55;;;;;;;0.10;0.10;;;;;;;;;;5033098;28;20025;-71
2023/01/14 10:41:48;;;;;;;0.10;0.10;;;;;;;;;;5050804;28;20574;-72
2023/01/14 10:44:12;;;;;;;0.10;0.10;;;;;;;;;;5050697;28;20448;-71
2023/01/14 10:46:40;;;;;;;1.60;1.50;;;;;;;;;;5050675;28;20096;-70
2023/01/14 10:49:11;;;;;;;0.10;0.10;;;;;;;;;;5050755;28;20048;-72
2023/01/14 10:51:47;;;;;;;1.23;1.15;;;;;;;;;;5051001;28;20052;-72
2023/01/14 10:54:14;;;;;;;0.20;0.20;;;;;;;;;;5050840;28;20025;-71
2023/01/14 10:56:41;;;;;;;0.43;0.43;;;;;;;;;;5050744;28;20021;-71
2023/01/14 10:59:22;;;;;;;0.88;0.50;;;;;;;;;;5050162;28;20013;-70
2023/01/14 11:01:47;;;;;;;0.10;0.10;;;;;;;;;;5050501;28;20029;-70
2023/01/14 11:04:13;;;;;;;0.60;0.60;;;;;;;;;;5050120;28;20049;-70
2023/01/14 11:06:38;;;;;;;0.75;0.55;;;;;;;;;;5050273;28;20021;-70
2023/01/14 11:09:04;;;;;;;0.50;0.40;;;;;;;;;;5032415;28;20056;-70
2023/01/14 11:11:37;;;;;;;0.20;0.20;;;;;;;;;;5050358;28;20372;-73
2023/01/14 11:14:16;;;;;;;0.10;0.10;;;;;;;;;;5050094;28;20033;-70
2023/01/14 11:16:41;;;;;;;0.85;0.85;;;;;;;;;;5050382;28;20021;-72
2023/01/14 11:19:10;;;;;;;0.28;0.28;;;;;;;;;;5050395;28;20075;-70
2023/01/14 11:21:38;;;;;;;4.07;0.98;;;;;;;;;;5050400;28;20036;-70
2023/01/14 11:24:08;;;;;;;0.10;0.10;;;;;;;;;;5050133;28;20025;-70
2023/01/14 11:26:38;;;;;;;1.38;1.27;;;;;;;;;;5050355;28;20013;-70
2023/01/14 11:29:11;;;;;;;0.45;0.45;;;;;;;;;;5049979;28;20033;-73
2023/01/14 11:31:38;;;;;;;4.72;1.60;;;;;;;;;;5032476;28;20021;-73
2023/01/14 11:34:04;;;;;;;2.75;0.50;;;;;;;;;;5049826;28;20048;-72
2023/01/14 11:36:31;;;;;;;5.20;1.48;;;;;;;;;;5049996;28;20024;-71
2023/01/14 11:38:58;;;;;;;0.22;0.22;;;;;;;;;;5049882;28;20364;-72
2023/01/14 11:41:37;;;;;;;0.90;0.22;;;;;;;;;;5049705;28;20025;-72
2023/01/14 11:44:09;;;;;;;13.82;1.85;;;;;;;;;;5049722;28;20025;-75
2023/01/14 11:46:34;;;;;;;0.85;0.75;;;;;;;;;;5050221;28;20025;-75
2023/01/14 11:49:19;;;;;;;0.32;0.30;;;;;;;;;;5049580;28;20033;-75
2023/01/14 11:52:01;;;;;;;0.47;0.47;;;;;;;;;;5049263;28;20023;-73
2023/01/14 11:54:34;;;;;;;0.20;0.20;;;;;;;;;;5049714;28;20040;-73
2023/01/14 11:57:00;;;;;;;0.30;0.30;;;;;;;;;;5049759;28;20017;-73
2023/01/14 11:59:29;;;;;;;0.10;0.10;;;;;;;;;;5049260;28;20016;-73
2023/01/14 12:02:01;;;;;;;0.28;0.20;;;;;;;;;;5030733;28;20017;-71
2023/01/14 12:04:32;;;;;;;0.30;0.30;;;;;;;;;;5031407;28;20044;-71
2023/01/14 12:07:01;;;;;;;0.20;0.20;;;;;;;;;;5049568;28;20057;-72
2023/01/14 12:09:41;;;;;;;0.20;0.20;;;;;;;;;;5031716;28;20048;-73
2023/01/14 12:12:12;;;;;;;0.20;0.20;;;;;;;;;;5047261;28;20021;-71
2023/01/14 12:17:30;;;;;;;0.35;0.35;;;;;;;;;;5010031;28;20030;-72
2023/01/14 12:20:02;;;;;;;0.20;0.20;;;;;;;;;;5009324;28;20037;-71
2023/01/14 12:22:34;;;;;;;0.38;0.38;;;;;;;;;;5009474;28;20028;-71
2023/01/14 12:25:03;;;;;;;0.20;0.20;;;;;;;;;;5022518;28;20461;-71
2023/01/14 12:27:43;;;;;;;0.43;0.43;;;;;;;;;;5010880;28;20017;-71
2023/01/14 12:30:12;;;;;;;0.20;0.20;;;;;;;;;;5029063;28;20025;-70
2023/01/14 12:32:37;;;;;;;0.20;0.20;;;;;;;;;;5029200;28;20119;-73
2023/01/14 12:35:03;;;;;;;0.20;0.20;;;;;;;;;;5029130;28;20029;-70
2023/01/14 12:37:32;;;;;;;0.35;0.35;;;;;;;;;;5028848;28;20030;-71
2023/01/14 12:45:41;;;;;;;0.30;0.30;;;;;;;;;;5029555;28;20097;-70
2023/01/14 12:48:07;;;;;;;0.20;0.20;;;;;;;;;;5010279;28;20030;-70
2023/01/14 12:50:34;;;;;;;0.20;0.20;;;;;;;;;;5038690;28;20367;-70
2023/01/14 12:52:59;;;;;;;0.20;0.20;;;;;;;;;;5032127;28;20033;-70
2023/01/14 12:55:36;;;;;;;0.22;0.22;;;;;;;;;;5042147;28;20021;-70
2023/01/14 12:58:04;;;;;;;0.20;0.20;;;;;;;;;;5033921;28;20483;-72
2023/01/14 13:00:32;;;;;;;0.20;0.20;;;;;;;;;;5035770;28;20029;-71
2023/01/14 13:02:59;;;;;;;0.20;0.20;;;;;;;;;;5030012;28;20032;-74
2023/01/14 13:05:37;;;;;;;1.38;0.45;;;;;;;;;;5030036;28;20041;-71
2023/01/14 13:08:23;;;;;;;0.20;0.20;;;;;;;;;;5031098;28;20032;-71
2023/01/14 13:10:56;;;;;;;0.13;0.13;;;;;;;;;;5022702;28;20050;-71
2023/01/14 13:13:23;;;;;;;0.30;0.30;;;;;;;;;;5031044;28;20025;-71
2023/01/14 13:15:49;;;;;;;2.75;1.65;;;;;;;;;;5030915;28;20022;-70
2023/01/14 13:18:33;;;;;;;0.20;0.20;;;;;;;;;;5031116;28;20483;-70
2023/01/14 13:20:59;;;;;;;0.20;0.20;;;;;;;;;;5031242;28;20091;-71
2023/01/14 13:23:37;;;;;;;0.20;0.20;;;;;;;;;;5029959;28;20018;-70
2023/01/14 13:26:13;;;;;;;2.88;2.75;;;;;;;;;;5029774;28;20029;-71
2023/01/14 13:28:57;;;;;;;0.20;0.20;;;;;;;;;;5031292;28;20037;-70
2023/01/14 13:31:34;;;;;;;0.20;0.20;;;;;;;;;;5043070;28;20020;-71
2023/01/14 13:34:29;;;;;;;3.50;1.08;;;;;;;;;;5034131;28;20032;-70
2023/01/14 13:37:00;;;;;;;0.40;0.40;;;;;;;;;;5015793;28;20041;-71
2023/01/14 13:39:27;;;;;;;0.30;0.30;;;;;;;;;;5029159;28;20026;-71
2023/01/14 13:41:53;;;;;;;0.20;0.20;;;;;;;;;;5030632;28;20168;-71
2023/01/14 13:44:21;;;;;;;0.25;0.25;;;;;;;;;;5030665;28;20171;-71
2023/01/14 13:46:49;;;;;;;0.30;0.30;;;;;;;;;;5028048;28;20111;-71
2023/01/14 13:49:23;;;;;;;0.50;0.38;;;;;;;;;;5030137;28;20033;-72
2023/01/14 13:51:50;;;;;;;0.20;0.20;;;;;;;;;;5028964;28;20100;-71
2023/01/14 13:54:15;;;;;;;0.17;0.17;;;;;;;;;;5028812;28;20036;-71
2023/01/14 13:57:07;;;;;;;0.32;0.32;;;;;;;;;;5029824;28;20021;-71
2023/01/14 13:59:33;;;;;;;0.30;0.30;;;;;;;;;;5030290;28;20122;-71
2023/01/14 14:02:00;;;;;;;0.20;0.20;;;;;;;;;;5030169;28;20028;-71
2023/01/14 14:05:04;;;;;;;0.27;0.27;;;;;;;;;;4983160;28;1220762;-71
2023/01/14 14:07:44;;;;;;;0.20;0.20;;;;;;;;;;4970102;28;20023;-71
2023/01/14 14:10:11;;;;;;;14.02;0.85;;;;;;;;;;4969564;28;20049;-71
2023/01/14 14:15:23;;;;;;;0.20;0.20;;;;;;;;;;5031266;28;20025;-70
2023/01/14 14:17:54;;;;;;;5.70;3.15;;;;;;;;;;5030996;28;20040;-71
2023/01/14 14:20:21;;;;;;;0.30;0.30;;;;;;;;;;5031257;28;20030;-70
2023/01/14 14:22:50;;;;;;;0.20;0.20;;;;;;;;;;5031319;28;20034;-71
2023/01/14 14:25:27;;;;;;;0.20;0.20;;;;;;;;;;5030787;28;20476;-71
2023/01/14 14:27:54;;;;;;;0.47;0.47;;;;;;;;;;5029957;28;20033;-70
2023/01/14 14:30:23;;;;;;;0.25;0.25;;;;;;;;;;5029782;28;20465;-71
2023/01/14 14:32:48;;;;;;;1.45;0.65;;;;;;;;;;5029889;28;20039;-72
2023/01/14 14:35:14;;;;;;;0.47;0.38;;;;;;;;;;5030513;28;20017;-71
2023/01/14 14:37:43;;;;;;;0.55;0.38;;;;;;;;;;5030406;28;20068;-71
2023/01/14 14:40:15;;;;;;;0.10;0.10;;;;;;;;;;5031062;28;20037;-71
2023/01/14 14:42:41;;;;;;;0.22;0.22;;;;;;;;;;5030244;28;20021;-71
2023/01/14 14:45:26;;;;;;;0.45;0.45;;;;;;;;;;5030142;28;20481;-71
2023/01/14 14:47:53;;;;;;;0.20;0.20;;;;;;;;;;5028004;28;20025;-72
2023/01/14 14:50:27;;;;;;;0.28;0.28;;;;;;;;;;5011768;28;20346;-72
2023/01/14 14:52:52;;;;;;;0.17;0.17;;;;;;;;;;5028792;28;20037;-71
2023/01/14 14:55:18;;;;;;;0.50;0.50;;;;;;;;;;5029745;28;20013;-72
2023/01/14 14:57:44;;;;;;;0.10;0.10;;;;;;;;;;5028653;28;20105;-72
2023/01/14 15:00:21;;;;;;;0.30;0.30;;;;;;;;;;5013051;28;20088;-71
2023/01/14 15:02:46;;;;;;;0.35;0.35;;;;;;;;;;5030500;28;20052;-71
2023/01/14 15:05:16;;;;;;;0.20;0.20;;;;;;;;;;5029985;28;20470;-72
2023/01/14 15:07:42;;;;;;;5.57;2.47;;;;;;;;;;5030025;28;20412;-72
2023/01/14 15:10:14;;;;;;;0.20;0.20;;;;;;;;;;5015856;28;20021;-72
2023/01/14 15:12:40;;;;;;;0.20;0.20;;;;;;;;;;5000831;28;20398;-72
2023/01/14 15:15:17;;;;;;;0.85;0.85;;;;;;;;;;5028016;28;20052;-72
2023/01/14 15:17:43;;;;;;;1.70;1.60;;;;;;;;;;5028994;28;20021;-71
2023/01/14 15:20:12;;;;;;;0.20;0.20;;;;;;;;;;5029823;28;20031;-71
2023/01/14 15:22:38;;;;;;;0.20;0.20;;;;;;;;;;5029354;28;20021;-72
2023/01/14 15:25:04;;;;;;;0.20;0.20;;;;;;;;;;5029488;28;20037;-72
2023/01/14 15:27:29;;;;;;;0.20;0.20;;;;;;;;;;5030017;28;20030;-72